sensor_id;sensor_type;location;lat;lon;timestamp;P1;durP1;ratioP1;P2;durP2;ratioP2
7142;SDS011;3613;48.902;9.204;2023-04-25T00:01:21;5.60;;;3.30;;
7142;SDS011;3613;48.902;9.204;2023-04-25T00:03:48;5.17;;;3.67;;
7142;SDS011;3613;48.902;9.204;2023-04-25T00:06:16;4.53;;;3.33;;
7142;SDS011;3613;48.902;9.204;2023-04-25T00:08:42;4.10;;;3.63;;
7142;SDS011;3613;48.902;9.204;2023-04-25T00:11:08;4.13;;;3.30;;
7142;SDS011;3613;48.902;9.204;2023-04-25T00:13:34;4.37;;;3.77;;
7142;SDS011;3613;48.902;9.204;2023-04-25T00:16:02;4.60;;;3.73;;
7142;SDS011;3613;48.902;9.204;2023-04-25T00:18:31;5.67;;;4.03;;
7142;SDS011;3613;48.902;9.204;2023-04-25T00:20:58;5.53;;;4.10;;
7142;SDS011;3613;48.902;9.204;2023-04-25T00:23:26;5.13;;;4.03;;
7142;SDS011;3613;48.902;9.204;2023-04-25T00:25:52;5.43;;;4.20;;
7142;SDS011;3613;48.902;9.204;2023-04-25T00:28:18;6.77;;;4.53;;
7142;SDS011;3613;48.902;9.204;2023-04-25T00:30:45;6.80;;;4.53;;
7142;SDS011;3613;48.902;9.204;2023-04-25T00:33:11;5.20;;;4.10;;
7142;SDS011;3613;48.902;9.204;2023-04-25T00:35:41;5.97;;;4.20;;
7142;SDS011;3613;48.902;9.204;2023-04-25T00:38:09;6.30;;;4.60;;
7142;SDS011;3613;48.902;9.204;2023-04-25T00:40:37;8.33;;;4.40;;
7142;SDS011;3613;48.902;9.204;2023-04-25T00:43:03;5.20;;;4.70;;
7142;SDS011;3613;48.902;9.204;2023-04-25T00:45:29;6.30;;;4.57;;
7142;SDS011;3613;48.902;9.204;2023-04-25T00:47:59;7.57;;;4.60;;
7142;SDS011;3613;48.902;9.204;2023-04-25T00:50:24;5.10;;;4.30;;
7142;SDS011;3613;48.902;9.204;2023-04-25T00:52:50;6.17;;;4.17;;
7142;SDS011;3613;48.902;9.204;2023-04-25T00:55:19;5.67;;;4.53;;
7142;SDS011;3613;48.902;9.204;2023-04-25T00:57:44;5.50;;;4.53;;
7142;SDS011;3613;48.902;9.204;2023-04-25T01:00:11;6.93;;;5.07;;
7142;SDS011;3613;48.902;9.204;2023-04-25T01:02:40;7.07;;;4.87;;
7142;SDS011;3613;48.902;9.204;2023-04-25T01:05:09;6.37;;;5.20;;
7142;SDS011;3613;48.902;9.204;2023-04-25T01:07:39;5.30;;;4.40;;
7142;SDS011;3613;48.902;9.204;2023-04-25T01:10:05;5.17;;;4.40;;
7142;SDS011;3613;48.902;9.204;2023-04-25T01:12:32;8.00;;;4.57;;
7142;SDS011;3613;48.902;9.204;2023-04-25T01:14:58;8.17;;;4.90;;
7142;SDS011;3613;48.902;9.204;2023-04-25T01:17:23;7.43;;;5.10;;
7142;SDS011;3613;48.902;9.204;2023-04-25T01:19:49;5.33;;;4.77;;
7142;SDS011;3613;48.902;9.204;2023-04-25T01:22:15;7.17;;;5.07;;
7142;SDS011;3613;48.902;9.204;2023-04-25T01:24:42;7.53;;;5.03;;
7142;SDS011;3613;48.902;9.204;2023-04-25T01:27:08;6.17;;;4.90;;
7142;SDS011;3613;48.902;9.204;2023-04-25T01:29:35;6.07;;;5.07;;
7142;SDS011;3613;48.902;9.204;2023-04-25T01:32:01;5.87;;;4.77;;
7142;SDS011;3613;48.902;9.204;2023-04-25T01:34:28;5.73;;;4.50;;
7142;SDS011;3613;48.902;9.204;2023-04-25T01:36:57;7.30;;;4.77;;
7142;SDS011;3613;48.902;9.204;2023-04-25T01:39:26;5.10;;;4.27;;
7142;SDS011;3613;48.902;9.204;2023-04-25T01:41:52;6.93;;;5.10;;
7142;SDS011;3613;48.902;9.204;2023-04-25T01:44:18;5.27;;;4.77;;
7142;SDS011;3613;48.902;9.204;2023-04-25T01:46:46;5.70;;;4.97;;
7142;SDS011;3613;48.902;9.204;2023-04-25T01:49:13;6.50;;;4.73;;
7142;SDS011;3613;48.902;9.204;2023-04-25T01:51:38;6.90;;;4.67;;
7142;SDS011;3613;48.902;9.204;2023-04-25T01:54:07;7.73;;;5.17;;
7142;SDS011;3613;48.902;9.204;2023-04-25T01:56:33;6.43;;;4.93;;
7142;SDS011;3613;48.902;9.204;2023-04-25T01:59:05;8.50;;;5.07;;
7142;SDS011;3613;48.902;9.204;2023-04-25T02:01:33;6.33;;;5.07;;
7142;SDS011;3613;48.902;9.204;2023-04-25T02:03:58;7.20;;;4.80;;
7142;SDS011;3613;48.902;9.204;2023-04-25T02:06:24;6.67;;;5.40;;
7142;SDS011;3613;48.902;9.204;2023-04-25T02:08:52;6.47;;;5.50;;
7142;SDS011;3613;48.902;9.204;2023-04-25T02:11:18;7.23;;;5.23;;
7142;SDS011;3613;48.902;9.204;2023-04-25T02:13:44;6.93;;;5.27;;
7142;SDS011;3613;48.902;9.204;2023-04-25T02:16:10;6.17;;;5.33;;
7142;SDS011;3613;48.902;9.204;2023-04-25T02:18:35;8.43;;;5.10;;
7142;SDS011;3613;48.902;9.204;2023-04-25T02:21:02;7.40;;;5.07;;
7142;SDS011;3613;48.902;9.204;2023-04-25T02:23:31;7.83;;;5.40;;
7142;SDS011;3613;48.902;9.204;2023-04-25T02:25:56;6.33;;;5.23;;
7142;SDS011;3613;48.902;9.204;2023-04-25T02:28:23;7.27;;;5.30;;
7142;SDS011;3613;48.902;9.204;2023-04-25T02:30:49;7.60;;;5.13;;
7142;SDS011;3613;48.902;9.204;2023-04-25T02:33:15;6.50;;;5.60;;
7142;SDS011;3613;48.902;9.204;2023-04-25T02:35:42;7.00;;;5.23;;
7142;SDS011;3613;48.902;9.204;2023-04-25T02:38:08;6.00;;;5.13;;
7142;SDS011;3613;48.902;9.204;2023-04-25T02:40:33;8.97;;;6.07;;
7142;SDS011;3613;48.902;9.204;2023-04-25T02:42:59;7.93;;;5.30;;
7142;SDS011;3613;48.902;9.204;2023-04-25T02:45:25;8.57;;;5.93;;
7142;SDS011;3613;48.902;9.204;2023-04-25T02:47:56;7.93;;;5.70;;
7142;SDS011;3613;48.902;9.204;2023-04-25T02:50:21;10.20;;;6.27;;
7142;SDS011;3613;48.902;9.204;2023-04-25T02:52:47;7.67;;;5.57;;
7142;SDS011;3613;48.902;9.204;2023-04-25T02:55:13;10.30;;;6.13;;
7142;SDS011;3613;48.902;9.204;2023-04-25T02:57:39;6.47;;;5.40;;
7142;SDS011;3613;48.902;9.204;2023-04-25T03:00:05;10.57;;;5.87;;
7142;SDS011;3613;48.902;9.204;2023-04-25T03:02:32;7.70;;;5.70;;
7142;SDS011;3613;48.902;9.204;2023-04-25T03:05:00;7.37;;;5.93;;
7142;SDS011;3613;48.902;9.204;2023-04-25T03:07:25;7.77;;;5.93;;
7142;SDS011;3613;48.902;9.204;2023-04-25T03:09:54;7.73;;;6.20;;
7142;SDS011;3613;48.902;9.204;2023-04-25T03:12:21;8.40;;;5.50;;
7142;SDS011;3613;48.902;9.204;2023-04-25T03:14:47;7.33;;;5.57;;
7142;SDS011;3613;48.902;9.204;2023-04-25T03:17:13;8.40;;;5.40;;
7142;SDS011;3613;48.902;9.204;2023-04-25T03:19:39;6.97;;;5.10;;
7142;SDS011;3613;48.902;9.204;2023-04-25T03:22:05;5.73;;;4.47;;
7142;SDS011;3613;48.902;9.204;2023-04-25T03:24:30;6.20;;;5.53;;
7142;SDS011;3613;48.902;9.204;2023-04-25T03:26:56;6.33;;;4.50;;
7142;SDS011;3613;48.902;9.204;2023-04-25T03:29:21;8.40;;;5.33;;
7142;SDS011;3613;48.902;9.204;2023-04-25T03:31:50;6.63;;;5.33;;
7142;SDS011;3613;48.902;9.204;2023-04-25T03:34:18;8.00;;;5.90;;
7142;SDS011;3613;48.902;9.204;2023-04-25T03:36:46;5.80;;;5.20;;
7142;SDS011;3613;48.902;9.204;2023-04-25T03:39:12;8.80;;;5.27;;
7142;SDS011;3613;48.902;9.204;2023-04-25T03:41:37;8.07;;;5.47;;
7142;SDS011;3613;48.902;9.204;2023-04-25T03:44:03;7.43;;;4.83;;
7142;SDS011;3613;48.902;9.204;2023-04-25T03:46:29;5.30;;;4.80;;
7142;SDS011;3613;48.902;9.204;2023-04-25T03:48:55;6.20;;;5.17;;
7142;SDS011;3613;48.902;9.204;2023-04-25T03:51:21;5.87;;;4.70;;
7142;SDS011;3613;48.902;9.204;2023-04-25T03:53:51;6.93;;;4.47;;
7142;SDS011;3613;48.902;9.204;2023-04-25T03:56:17;7.87;;;5.37;;
7142;SDS011;3613;48.902;9.204;2023-04-25T03:58:42;7.03;;;4.83;;
7142;SDS011;3613;48.902;9.204;2023-04-25T04:01:11;6.73;;;5.00;;
7142;SDS011;3613;48.902;9.204;2023-04-25T04:03:37;5.60;;;4.60;;
7142;SDS011;3613;48.902;9.204;2023-04-25T04:06:03;6.57;;;4.73;;
7142;SDS011;3613;48.902;9.204;2023-04-25T04:08:32;6.17;;;4.87;;
7142;SDS011;3613;48.902;9.204;2023-04-25T04:10:58;6.23;;;4.53;;
7142;SDS011;3613;48.902;9.204;2023-04-25T04:13:28;6.43;;;4.77;;
7142;SDS011;3613;48.902;9.204;2023-04-25T04:15:56;7.63;;;4.93;;
7142;SDS011;3613;48.902;9.204;2023-04-25T04:18:23;7.07;;;4.93;;
7142;SDS011;3613;48.902;9.204;2023-04-25T04:20:51;9.33;;;5.70;;
7142;SDS011;3613;48.902;9.204;2023-04-25T04:23:16;7.43;;;5.77;;
7142;SDS011;3613;48.902;9.204;2023-04-25T04:25:42;9.63;;;5.37;;
7142;SDS011;3613;48.902;9.204;2023-04-25T04:28:08;9.20;;;5.77;;
7142;SDS011;3613;48.902;9.204;2023-04-25T04:30:36;8.47;;;5.50;;
7142;SDS011;3613;48.902;9.204;2023-04-25T04:33:04;7.90;;;5.57;;
7142;SDS011;3613;48.902;9.204;2023-04-25T04:35:32;6.87;;;5.60;;
7142;SDS011;3613;48.902;9.204;2023-04-25T04:37:58;7.37;;;5.67;;
7142;SDS011;3613;48.902;9.204;2023-04-25T04:40:26;9.13;;;5.87;;
7142;SDS011;3613;48.902;9.204;2023-04-25T04:42:52;8.90;;;6.23;;
7142;SDS011;3613;48.902;9.204;2023-04-25T04:45:21;7.57;;;6.07;;
7142;SDS011;3613;48.902;9.204;2023-04-25T04:47:49;8.17;;;5.67;;
7142;SDS011;3613;48.902;9.204;2023-04-25T04:50:16;5.97;;;5.07;;
7142;SDS011;3613;48.902;9.204;2023-04-25T04:52:42;6.90;;;5.60;;
7142;SDS011;3613;48.902;9.204;2023-04-25T04:55:08;5.37;;;4.87;;
7142;SDS011;3613;48.902;9.204;2023-04-25T04:57:34;10.10;;;5.17;;
7142;SDS011;3613;48.902;9.204;2023-04-25T05:00:00;7.57;;;4.53;;
7142;SDS011;3613;48.902;9.204;2023-04-25T05:02:29;10.90;;;4.80;;
7142;SDS011;3613;48.902;9.204;2023-04-25T05:04:55;8.10;;;5.00;;
7142;SDS011;3613;48.902;9.204;2023-04-25T05:07:24;6.03;;;4.50;;
7142;SDS011;3613;48.902;9.204;2023-04-25T05:09:50;5.10;;;4.20;;
7142;SDS011;3613;48.902;9.204;2023-04-25T05:12:20;5.80;;;4.13;;
7142;SDS011;3613;48.902;9.204;2023-04-25T05:14:46;8.00;;;4.73;;
7142;SDS011;3613;48.902;9.204;2023-04-25T05:17:12;5.83;;;4.30;;
7142;SDS011;3613;48.902;9.204;2023-04-25T05:19:38;6.90;;;5.40;;
7142;SDS011;3613;48.902;9.204;2023-04-25T05:22:04;7.00;;;4.90;;
7142;SDS011;3613;48.902;9.204;2023-04-25T05:24:30;6.27;;;5.13;;
7142;SDS011;3613;48.902;9.204;2023-04-25T05:26:56;6.00;;;4.90;;
7142;SDS011;3613;48.902;9.204;2023-04-25T05:29:21;6.27;;;4.70;;
7142;SDS011;3613;48.902;9.204;2023-04-25T05:31:47;6.47;;;4.87;;
7142;SDS011;3613;48.902;9.204;2023-04-25T05:34:13;5.83;;;5.17;;
7142;SDS011;3613;48.902;9.204;2023-04-25T05:36:41;5.63;;;4.43;;
7142;SDS011;3613;48.902;9.204;2023-04-25T05:39:07;7.93;;;4.50;;
7142;SDS011;3613;48.902;9.204;2023-04-25T05:41:33;5.67;;;4.57;;
7142;SDS011;3613;48.902;9.204;2023-04-25T05:44:01;6.47;;;4.73;;
7142;SDS011;3613;48.902;9.204;2023-04-25T05:46:27;5.97;;;4.67;;
7142;SDS011;3613;48.902;9.204;2023-04-25T05:48:53;4.57;;;4.17;;
7142;SDS011;3613;48.902;9.204;2023-04-25T05:51:19;7.53;;;4.40;;
7142;SDS011;3613;48.902;9.204;2023-04-25T05:53:45;5.33;;;4.60;;
7142;SDS011;3613;48.902;9.204;2023-04-25T05:56:11;7.17;;;5.70;;
7142;SDS011;3613;48.902;9.204;2023-04-25T05:58:38;5.20;;;4.60;;
7142;SDS011;3613;48.902;9.204;2023-04-25T06:01:04;4.87;;;4.33;;
7142;SDS011;3613;48.902;9.204;2023-04-25T06:03:29;6.13;;;4.97;;
7142;SDS011;3613;48.902;9.204;2023-04-25T06:05:55;5.83;;;4.07;;
7142;SDS011;3613;48.902;9.204;2023-04-25T06:08:21;5.50;;;4.60;;
7142;SDS011;3613;48.902;9.204;2023-04-25T06:10:47;4.73;;;4.23;;
7142;SDS011;3613;48.902;9.204;2023-04-25T06:13:13;5.20;;;4.00;;
7142;SDS011;3613;48.902;9.204;2023-04-25T06:15:41;6.97;;;4.20;;
7142;SDS011;3613;48.902;9.204;2023-04-25T06:18:08;8.47;;;4.60;;
7142;SDS011;3613;48.902;9.204;2023-04-25T06:20:34;5.20;;;3.93;;
7142;SDS011;3613;48.902;9.204;2023-04-25T06:23:00;4.50;;;3.67;;
7142;SDS011;3613;48.902;9.204;2023-04-25T06:25:25;4.50;;;4.10;;
7142;SDS011;3613;48.902;9.204;2023-04-25T06:27:51;4.90;;;3.83;;
7142;SDS011;3613;48.902;9.204;2023-04-25T06:30:17;5.10;;;3.93;;
7142;SDS011;3613;48.902;9.204;2023-04-25T06:32:47;4.17;;;3.77;;
7142;SDS011;3613;48.902;9.204;2023-04-25T06:35:15;5.13;;;3.73;;
7142;SDS011;3613;48.902;9.204;2023-04-25T06:37:43;6.20;;;3.47;;
7142;SDS011;3613;48.902;9.204;2023-04-25T06:40:12;5.67;;;3.50;;
7142;SDS011;3613;48.902;9.204;2023-04-25T06:42:38;5.23;;;3.43;;
7142;SDS011;3613;48.902;9.204;2023-04-25T06:45:04;4.23;;;3.40;;
7142;SDS011;3613;48.902;9.204;2023-04-25T06:47:30;6.17;;;2.87;;
7142;SDS011;3613;48.902;9.204;2023-04-25T06:49:56;4.07;;;2.70;;
7142;SDS011;3613;48.902;9.204;2023-04-25T06:52:26;3.37;;;2.57;;
7142;SDS011;3613;48.902;9.204;2023-04-25T06:54:52;4.03;;;3.30;;
7142;SDS011;3613;48.902;9.204;2023-04-25T06:57:17;3.80;;;3.10;;
7142;SDS011;3613;48.902;9.204;2023-04-25T06:59:45;4.00;;;3.00;;
7142;SDS011;3613;48.902;9.204;2023-04-25T07:02:13;3.97;;;3.00;;
7142;SDS011;3613;48.902;9.204;2023-04-25T07:04:43;4.27;;;3.17;;
7142;SDS011;3613;48.902;9.204;2023-04-25T07:07:11;4.83;;;3.10;;
7142;SDS011;3613;48.902;9.204;2023-04-25T07:09:37;4.03;;;3.63;;
7142;SDS011;3613;48.902;9.204;2023-04-25T07:12:03;6.57;;;3.87;;
7142;SDS011;3613;48.902;9.204;2023-04-25T07:14:29;6.00;;;3.93;;
7142;SDS011;3613;48.902;9.204;2023-04-25T07:16:57;3.60;;;3.30;;
7142;SDS011;3613;48.902;9.204;2023-04-25T07:19:23;4.20;;;3.70;;
7142;SDS011;3613;48.902;9.204;2023-04-25T07:21:51;3.97;;;3.60;;
7142;SDS011;3613;48.902;9.204;2023-04-25T07:24:19;5.93;;;4.20;;
7142;SDS011;3613;48.902;9.204;2023-04-25T07:26:48;5.10;;;3.80;;
7142;SDS011;3613;48.902;9.204;2023-04-25T07:29:16;4.97;;;3.70;;
7142;SDS011;3613;48.902;9.204;2023-04-25T07:31:42;7.20;;;4.00;;
7142;SDS011;3613;48.902;9.204;2023-04-25T07:34:15;5.33;;;4.47;;
7142;SDS011;3613;48.902;9.204;2023-04-25T07:36:41;4.83;;;4.33;;
7142;SDS011;3613;48.902;9.204;2023-04-25T07:39:07;5.10;;;4.43;;
7142;SDS011;3613;48.902;9.204;2023-04-25T07:41:36;4.80;;;4.00;;
7142;SDS011;3613;48.902;9.204;2023-04-25T07:44:04;6.57;;;4.50;;
7142;SDS011;3613;48.902;9.204;2023-04-25T07:46:29;5.57;;;4.17;;
7142;SDS011;3613;48.902;9.204;2023-04-25T07:48:55;6.20;;;4.70;;
7142;SDS011;3613;48.902;9.204;2023-04-25T07:51:21;6.20;;;4.53;;
7142;SDS011;3613;48.902;9.204;2023-04-25T07:53:47;6.03;;;5.00;;
7142;SDS011;3613;48.902;9.204;2023-04-25T07:56:13;6.13;;;5.50;;
7142;SDS011;3613;48.902;9.204;2023-04-25T07:58:41;7.07;;;5.53;;
7142;SDS011;3613;48.902;9.204;2023-04-25T08:01:06;7.27;;;5.67;;
7142;SDS011;3613;48.902;9.204;2023-04-25T08:03:32;8.30;;;6.13;;
7142;SDS011;3613;48.902;9.204;2023-04-25T08:05:58;8.93;;;6.57;;
7142;SDS011;3613;48.902;9.204;2023-04-25T08:08:26;9.43;;;6.77;;
7142;SDS011;3613;48.902;9.204;2023-04-25T08:11:00;7.97;;;6.53;;
7142;SDS011;3613;48.902;9.204;2023-04-25T08:13:28;8.73;;;6.57;;
7142;SDS011;3613;48.902;9.204;2023-04-25T08:15:54;9.17;;;6.90;;
7142;SDS011;3613;48.902;9.204;2023-04-25T08:18:24;8.83;;;6.60;;
7142;SDS011;3613;48.902;9.204;2023-04-25T08:20:50;6.93;;;6.23;;
7142;SDS011;3613;48.902;9.204;2023-04-25T08:23:17;8.60;;;6.47;;
7142;SDS011;3613;48.902;9.204;2023-04-25T08:25:45;7.30;;;6.07;;
7142;SDS011;3613;48.902;9.204;2023-04-25T08:28:14;8.50;;;6.40;;
7142;SDS011;3613;48.902;9.204;2023-04-25T08:30:40;8.60;;;6.80;;
7142;SDS011;3613;48.902;9.204;2023-04-25T08:33:08;8.30;;;6.90;;
7142;SDS011;3613;48.902;9.204;2023-04-25T08:35:35;9.73;;;6.47;;
7142;SDS011;3613;48.902;9.204;2023-04-25T08:38:01;10.73;;;7.10;;
7142;SDS011;3613;48.902;9.204;2023-04-25T08:40:27;7.63;;;6.07;;
7142;SDS011;3613;48.902;9.204;2023-04-25T08:43:00;7.00;;;5.93;;
7142;SDS011;3613;48.902;9.204;2023-04-25T08:45:31;10.47;;;5.87;;
7142;SDS011;3613;48.902;9.204;2023-04-25T08:47:58;7.43;;;6.13;;
7142;SDS011;3613;48.902;9.204;2023-04-25T08:50:24;7.23;;;6.20;;
7142;SDS011;3613;48.902;9.204;2023-04-25T08:52:53;10.73;;;7.70;;
7142;SDS011;3613;48.902;9.204;2023-04-25T08:55:21;8.67;;;7.37;;
7142;SDS011;3613;48.902;9.204;2023-04-25T08:57:47;11.03;;;7.40;;
7142;SDS011;3613;48.902;9.204;2023-04-25T09:00:13;9.47;;;7.17;;
7142;SDS011;3613;48.902;9.204;2023-04-25T09:02:40;10.40;;;7.67;;
7142;SDS011;3613;48.902;9.204;2023-04-25T09:05:12;8.87;;;7.57;;
7142;SDS011;3613;48.902;9.204;2023-04-25T09:07:39;8.80;;;7.33;;
7142;SDS011;3613;48.902;9.204;2023-04-25T09:10:05;8.70;;;7.50;;
7142;SDS011;3613;48.902;9.204;2023-04-25T09:12:31;8.57;;;7.63;;
7142;SDS011;3613;48.902;9.204;2023-04-25T09:15:04;11.13;;;7.60;;
7142;SDS011;3613;48.902;9.204;2023-04-25T09:17:36;11.30;;;7.40;;
7142;SDS011;3613;48.902;9.204;2023-04-25T09:20:06;11.00;;;7.50;;
7142;SDS011;3613;48.902;9.204;2023-04-25T09:22:33;9.43;;;7.93;;
7142;SDS011;3613;48.902;9.204;2023-04-25T09:25:02;12.03;;;8.40;;
7142;SDS011;3613;48.902;9.204;2023-04-25T09:27:32;10.87;;;8.73;;
7142;SDS011;3613;48.902;9.204;2023-04-25T09:29:58;10.30;;;8.03;;
7142;SDS011;3613;48.902;9.204;2023-04-25T09:32:27;10.17;;;7.87;;
7142;SDS011;3613;48.902;9.204;2023-04-25T09:34:56;12.10;;;8.67;;
7142;SDS011;3613;48.902;9.204;2023-04-25T09:39:48;11.17;;;9.03;;
7142;SDS011;3613;48.902;9.204;2023-04-25T09:42:16;10.57;;;8.60;;
7142;SDS011;3613;48.902;9.204;2023-04-25T09:44:44;10.60;;;8.13;;
7142;SDS011;3613;48.902;9.204;2023-04-25T09:47:12;11.10;;;9.07;;
7142;SDS011;3613;48.902;9.204;2023-04-25T09:49:43;10.37;;;8.23;;
7142;SDS011;3613;48.902;9.204;2023-04-25T09:52:16;11.17;;;8.67;;
7142;SDS011;3613;48.902;9.204;2023-04-25T09:54:51;11.77;;;8.60;;
7142;SDS011;3613;48.902;9.204;2023-04-25T09:57:20;10.47;;;7.73;;
7142;SDS011;3613;48.902;9.204;2023-04-25T09:59:48;11.10;;;8.10;;
7142;SDS011;3613;48.902;9.204;2023-04-25T10:02:27;10.77;;;8.00;;
7142;SDS011;3613;48.902;9.204;2023-04-25T10:04:53;8.93;;;8.03;;
7142;SDS011;3613;48.902;9.204;2023-04-25T10:07:20;11.47;;;8.77;;
7142;SDS011;3613;48.902;9.204;2023-04-25T10:09:54;11.30;;;8.60;;
7142;SDS011;3613;48.902;9.204;2023-04-25T10:12:26;11.53;;;8.90;;
7142;SDS011;3613;48.902;9.204;2023-04-25T10:14:52;12.30;;;9.03;;
7142;SDS011;3613;48.902;9.204;2023-04-25T10:17:19;12.90;;;9.47;;
7142;SDS011;3613;48.902;9.204;2023-04-25T10:19:46;14.47;;;9.13;;
7142;SDS011;3613;48.902;9.204;2023-04-25T10:22:14;11.97;;;9.00;;
7142;SDS011;3613;48.902;9.204;2023-04-25T10:24:45;10.87;;;8.80;;
7142;SDS011;3613;48.902;9.204;2023-04-25T10:27:14;10.23;;;7.60;;
7142;SDS011;3613;48.902;9.204;2023-04-25T10:29:41;11.57;;;7.87;;
7142;SDS011;3613;48.902;9.204;2023-04-25T10:32:11;9.97;;;7.40;;
7142;SDS011;3613;48.902;9.204;2023-04-25T10:34:38;10.83;;;7.67;;
7142;SDS011;3613;48.902;9.204;2023-04-25T10:37:04;10.33;;;7.33;;
7142;SDS011;3613;48.902;9.204;2023-04-25T10:39:34;10.77;;;7.53;;
7142;SDS011;3613;48.902;9.204;2023-04-25T10:42:00;7.93;;;5.80;;
7142;SDS011;3613;48.902;9.204;2023-04-25T10:44:30;7.00;;;4.90;;
7142;SDS011;3613;48.902;9.204;2023-04-25T10:46:57;7.00;;;4.87;;
7142;SDS011;3613;48.902;9.204;2023-04-25T10:49:30;6.17;;;3.70;;
7142;SDS011;3613;48.902;9.204;2023-04-25T10:54:46;4.50;;;3.80;;
7142;SDS011;3613;48.902;9.204;2023-04-25T10:59:59;5.53;;;4.67;;
7142;SDS011;3613;48.902;9.204;2023-04-25T11:05:16;5.47;;;4.90;;
7142;SDS011;3613;48.902;9.204;2023-04-25T11:08:03;7.00;;;5.30;;
7142;SDS011;3613;48.902;9.204;2023-04-25T11:10:36;11.13;;;6.10;;
7142;SDS011;3613;48.902;9.204;2023-04-25T11:13:07;9.40;;;6.57;;
7142;SDS011;3613;48.902;9.204;2023-04-25T11:15:32;8.27;;;6.40;;
7142;SDS011;3613;48.902;9.204;2023-04-25T11:17:58;7.80;;;5.80;;
7142;SDS011;3613;48.902;9.204;2023-04-25T11:20:25;8.50;;;5.83;;
7142;SDS011;3613;48.902;9.204;2023-04-25T11:22:53;8.23;;;5.80;;
7142;SDS011;3613;48.902;9.204;2023-04-25T11:25:19;7.77;;;6.20;;
7142;SDS011;3613;48.902;9.204;2023-04-25T11:27:52;6.80;;;5.80;;
7142;SDS011;3613;48.902;9.204;2023-04-25T11:30:19;9.00;;;5.93;;
7142;SDS011;3613;48.902;9.204;2023-04-25T11:32:47;7.80;;;5.97;;
7142;SDS011;3613;48.902;9.204;2023-04-25T11:35:13;6.87;;;5.47;;
7142;SDS011;3613;48.902;9.204;2023-04-25T11:37:42;8.30;;;5.87;;
7142;SDS011;3613;48.902;9.204;2023-04-25T11:40:09;7.00;;;5.40;;
7142;SDS011;3613;48.902;9.204;2023-04-25T11:42:39;8.37;;;5.70;;
7142;SDS011;3613;48.902;9.204;2023-04-25T11:45:09;8.73;;;5.37;;
7142;SDS011;3613;48.902;9.204;2023-04-25T11:47:35;7.43;;;6.27;;
7142;SDS011;3613;48.902;9.204;2023-04-25T11:50:02;8.63;;;6.57;;
7142;SDS011;3613;48.902;9.204;2023-04-25T11:52:37;10.13;;;6.40;;
7142;SDS011;3613;48.902;9.204;2023-04-25T11:55:08;8.17;;;6.07;;
7142;SDS011;3613;48.902;9.204;2023-04-25T11:57:35;8.33;;;6.30;;
7142;SDS011;3613;48.902;9.204;2023-04-25T12:00:06;8.63;;;6.37;;
7142;SDS011;3613;48.902;9.204;2023-04-25T12:02:37;7.83;;;6.07;;
7142;SDS011;3613;48.902;9.204;2023-04-25T12:05:06;8.70;;;6.03;;
7142;SDS011;3613;48.902;9.204;2023-04-25T12:07:33;7.47;;;6.00;;
7142;SDS011;3613;48.902;9.204;2023-04-25T12:10:09;8.17;;;6.37;;
7142;SDS011;3613;48.902;9.204;2023-04-25T12:12:37;9.67;;;6.47;;
7142;SDS011;3613;48.902;9.204;2023-04-25T12:15:13;7.63;;;6.20;;
7142;SDS011;3613;48.902;9.204;2023-04-25T12:17:47;8.83;;;6.70;;
7142;SDS011;3613;48.902;9.204;2023-04-25T12:20:14;12.50;;;6.77;;
7142;SDS011;3613;48.902;9.204;2023-04-25T12:22:45;8.80;;;6.37;;
7142;SDS011;3613;48.902;9.204;2023-04-25T12:25:33;8.77;;;6.97;;
7142;SDS011;3613;48.902;9.204;2023-04-25T12:28:09;8.40;;;6.83;;
7142;SDS011;3613;48.902;9.204;2023-04-25T12:30:52;11.13;;;6.90;;
7142;SDS011;3613;48.902;9.204;2023-04-25T12:33:17;11.20;;;7.60;;
7142;SDS011;3613;48.902;9.204;2023-04-25T12:35:43;12.07;;;7.87;;
7142;SDS011;3613;48.902;9.204;2023-04-25T12:38:08;10.67;;;7.87;;
7142;SDS011;3613;48.902;9.204;2023-04-25T12:40:37;10.27;;;7.80;;
7142;SDS011;3613;48.902;9.204;2023-04-25T12:43:02;12.90;;;8.10;;
7142;SDS011;3613;48.902;9.204;2023-04-25T12:45:30;12.07;;;8.50;;
7142;SDS011;3613;48.902;9.204;2023-04-25T12:47:58;10.90;;;7.63;;
7142;SDS011;3613;48.902;9.204;2023-04-25T12:50:24;11.93;;;7.00;;
7142;SDS011;3613;48.902;9.204;2023-04-25T12:52:51;10.07;;;7.63;;
7142;SDS011;3613;48.902;9.204;2023-04-25T12:55:19;10.93;;;7.17;;
7142;SDS011;3613;48.902;9.204;2023-04-25T12:57:45;10.53;;;7.57;;
7142;SDS011;3613;48.902;9.204;2023-04-25T13:00:12;8.93;;;6.57;;
7142;SDS011;3613;48.902;9.204;2023-04-25T13:02:45;7.63;;;6.23;;
7142;SDS011;3613;48.902;9.204;2023-04-25T13:05:13;8.30;;;6.37;;
7142;SDS011;3613;48.902;9.204;2023-04-25T13:07:39;7.80;;;6.20;;
7142;SDS011;3613;48.902;9.204;2023-04-25T13:10:06;7.90;;;6.33;;
7142;SDS011;3613;48.902;9.204;2023-04-25T13:12:32;10.63;;;7.20;;
7142;SDS011;3613;48.902;9.204;2023-04-25T13:15:02;8.63;;;6.77;;
7142;SDS011;3613;48.902;9.204;2023-04-25T13:17:28;9.47;;;7.00;;
7142;SDS011;3613;48.902;9.204;2023-04-25T13:19:54;11.90;;;8.00;;
7142;SDS011;3613;48.902;9.204;2023-04-25T13:22:20;12.53;;;8.13;;
7142;SDS011;3613;48.902;9.204;2023-04-25T13:24:46;10.03;;;8.07;;
7142;SDS011;3613;48.902;9.204;2023-04-25T13:27:16;9.90;;;7.67;;
7142;SDS011;3613;48.902;9.204;2023-04-25T13:29:44;13.47;;;7.87;;
7142;SDS011;3613;48.902;9.204;2023-04-25T13:32:10;11.17;;;7.63;;
7142;SDS011;3613;48.902;9.204;2023-04-25T13:34:36;11.90;;;8.43;;
7142;SDS011;3613;48.902;9.204;2023-04-25T13:37:02;10.73;;;7.63;;
7142;SDS011;3613;48.902;9.204;2023-04-25T13:39:28;10.67;;;8.43;;
7142;SDS011;3613;48.902;9.204;2023-04-25T13:41:55;13.10;;;8.23;;
7142;SDS011;3613;48.902;9.204;2023-04-25T13:44:21;11.10;;;7.93;;
7142;SDS011;3613;48.902;9.204;2023-04-25T13:46:47;10.60;;;7.77;;
7142;SDS011;3613;48.902;9.204;2023-04-25T13:49:13;10.73;;;8.10;;
7142;SDS011;3613;48.902;9.204;2023-04-25T13:51:39;10.70;;;7.87;;
7142;SDS011;3613;48.902;9.204;2023-04-25T13:54:07;11.27;;;7.73;;
7142;SDS011;3613;48.902;9.204;2023-04-25T13:56:35;13.23;;;7.90;;
7142;SDS011;3613;48.902;9.204;2023-04-25T13:59:01;12.03;;;7.17;;
7142;SDS011;3613;48.902;9.204;2023-04-25T14:01:27;9.97;;;7.50;;
7142;SDS011;3613;48.902;9.204;2023-04-25T14:03:53;9.67;;;7.50;;
7142;SDS011;3613;48.902;9.204;2023-04-25T14:06:18;8.10;;;6.90;;
7142;SDS011;3613;48.902;9.204;2023-04-25T14:08:48;10.23;;;7.30;;
7142;SDS011;3613;48.902;9.204;2023-04-25T14:11:14;13.70;;;9.93;;
7142;SDS011;3613;48.902;9.204;2023-04-25T14:13:42;13.47;;;10.03;;
7142;SDS011;3613;48.902;9.204;2023-04-25T14:16:08;10.00;;;8.03;;
7142;SDS011;3613;48.902;9.204;2023-04-25T14:18:37;9.23;;;6.13;;
7142;SDS011;3613;48.902;9.204;2023-04-25T14:21:03;6.90;;;6.10;;
7142;SDS011;3613;48.902;9.204;2023-04-25T14:23:31;10.07;;;6.90;;
7142;SDS011;3613;48.902;9.204;2023-04-25T14:25:59;10.77;;;6.63;;
7142;SDS011;3613;48.902;9.204;2023-04-25T14:28:25;6.90;;;6.20;;
7142;SDS011;3613;48.902;9.204;2023-04-25T14:30:51;8.93;;;6.13;;
7142;SDS011;3613;48.902;9.204;2023-04-25T14:33:17;7.83;;;6.00;;
7142;SDS011;3613;48.902;9.204;2023-04-25T14:35:43;7.93;;;5.83;;
7142;SDS011;3613;48.902;9.204;2023-04-25T14:38:08;10.33;;;6.03;;
7142;SDS011;3613;48.902;9.204;2023-04-25T14:40:37;10.77;;;6.40;;
7142;SDS011;3613;48.902;9.204;2023-04-25T14:43:03;10.27;;;5.57;;
7142;SDS011;3613;48.902;9.204;2023-04-25T14:45:29;8.53;;;6.13;;
7142;SDS011;3613;48.902;9.204;2023-04-25T14:47:55;6.80;;;5.93;;
7142;SDS011;3613;48.902;9.204;2023-04-25T14:50:21;9.57;;;5.60;;
7142;SDS011;3613;48.902;9.204;2023-04-25T14:52:46;9.23;;;6.17;;
7142;SDS011;3613;48.902;9.204;2023-04-25T14:55:12;8.40;;;5.57;;
7142;SDS011;3613;48.902;9.204;2023-04-25T14:57:40;8.13;;;6.37;;
7142;SDS011;3613;48.902;9.204;2023-04-25T15:00:05;8.57;;;7.03;;
7142;SDS011;3613;48.902;9.204;2023-04-25T15:02:34;8.73;;;6.63;;
7142;SDS011;3613;48.902;9.204;2023-04-25T15:05:01;10.20;;;6.20;;
7142;SDS011;3613;48.902;9.204;2023-04-25T15:07:29;7.30;;;5.70;;
7142;SDS011;3613;48.902;9.204;2023-04-25T15:09:55;7.70;;;5.80;;
7142;SDS011;3613;48.902;9.204;2023-04-25T15:12:21;8.37;;;5.97;;
7142;SDS011;3613;48.902;9.204;2023-04-25T15:14:51;9.17;;;5.27;;
7142;SDS011;3613;48.902;9.204;2023-04-25T15:17:17;6.10;;;5.20;;
7142;SDS011;3613;48.902;9.204;2023-04-25T15:19:43;11.40;;;8.13;;
7142;SDS011;3613;48.902;9.204;2023-04-25T15:22:08;8.03;;;5.73;;
7142;SDS011;3613;48.902;9.204;2023-04-25T15:24:37;6.30;;;5.67;;